^^
MeteoGriva-Weather Station Historical Data
Daily Summary for October 27, 2020 Units:  English    Metric   Both
Daily Weekly Monthly Yearly Custom
  High: Low: Average:
Temperature: 67.6 °F 53.8 °F 59.9 °F
Dew Point: 60.8 °F 49.8 °F 55.2 °F
Humidity: 99% 70.6% 85%
Wind Speed: 4.4mph 0mph 0.4mph
Wind Gust: 10.1mph - -
Wind- - SSE
Pressure: 29.9 in 29.8 in -
Precipitation: 0 in    
Historical Graphs
 
 
Tabular Data for October 27, 2020
Time Temperature Dew Point Pressure Wind Wind Speed Wind Gust Humidity Rainfall Rate (Hourly) solar
00:04 56.5 °F 51.8 °F 29.9 in Calm     84.4% 0 in 0 W/m2
00:09 56.1 °F 51.3 °F 29.9 in Calm     83.8% 0 in 0 W/m2
00:14 55.8 °F 50.9 °F 29.9 in Calm     83.7% 0 in 0 W/m2
00:19 55.8 °F 51.3 °F 29.9 in Calm     84.4% 0 in 0 W/m2
00:24 55.8 °F 51.1 °F 29.9 in Calm     84% 0 in 0 W/m2
00:29 55.8 °F 51.1 °F 29.9 in Calm     84.2% 0 in 0 W/m2
00:34 55.8 °F 51.3 °F 29.9 in Calm     85% 0 in 0 W/m2
00:39 55.8 °F 51.3 °F 29.9 in Calm     84.4% 0 in 0 W/m2
00:44 55.8 °F 50.9 °F 29.9 in Calm     83.7% 0 in 0 W/m2
00:49 55.8 °F 51.3 °F 29.9 in Calm     85.1% 0 in 0 W/m2
00:54 55 °F 50.9 °F 29.9 in Calm     85.8% 0 in 0 W/m2
00:59 55.2 °F 50.7 °F 29.9 in Calm     84.7% 0 in 0 W/m2
01:04 55.4 °F 50.7 °F 29.9 in Calm     84.3% 0 in 0 W/m2
01:09 55.8 °F 51.1 °F 29.9 in Calm     84.7% 0 in 0 W/m2
01:14 56.5 °F 52 °F 29.9 in Calm     85.1% 0 in 0 W/m2
01:19 56.5 °F 52.3 °F 29.9 in Calm     85.9% 0 in 0 W/m2
01:24 56.5 °F 52.3 °F 29.9 in Calm     85.9% 0 in 0 W/m2
01:29 56.5 °F 52 °F 29.9 in Calm     85% 0 in 0 W/m2
01:34 56.5 °F 52.3 °F 29.9 in Calm     86% 0 in 0 W/m2
01:39 56.5 °F 52.2 °F 29.9 in Calm     85.6% 0 in 0 W/m2
01:44 56.7 °F 52.5 °F 29.9 in Calm     85.9% 0 in 0 W/m2
01:49 56.5 °F 52.3 °F 29.9 in Calm     86.2% 0 in 0 W/m2
01:54 55.9 °F 51.8 °F 29.9 in Calm     86% 0 in 0 W/m2
01:59 55.9 °F 51.8 °F 29.9 in Calm     86% 0 in 0 W/m2
02:04 55.9 °F 51.4 °F 29.9 in Calm     85% 0 in 0 W/m2
02:09 55.9 °F 51.4 °F 29.9 in Calm     84.4% 0 in 0 W/m2
02:14 56.3 °F 51.6 °F 29.9 in Calm     84.6% 0 in 0 W/m2
02:19 56.3 °F 51.6 °F 29.9 in Calm     84.6% 0 in 0 W/m2
02:24 56.3 °F 51.8 °F 29.9 in Calm     85% 0 in 0 W/m2
02:29 56.3 °F 51.8 °F 29.9 in Calm     84.9% 0 in 0 W/m2
02:34 56.5 °F 52 °F 29.9 in Calm     85% 0 in 0 W/m2
02:39 56.3 °F 51.8 °F 29.9 in Calm     85.1% 0 in 0 W/m2
02:44 56.3 °F 51.8 °F 29.9 in Calm     85.2% 0 in 0 W/m2
02:49 56.3 °F 51.8 °F 29.9 in Calm     85.2% 0 in 0 W/m2
02:54 56.3 °F 52.2 °F 29.9 in Calm     86.3% 0 in 0 W/m2
02:59 56.1 °F 52 °F 29.9 in Calm     86% 0 in 0 W/m2
03:04 56.1 °F 52 °F 29.9 in Calm     86.2% 0 in 0 W/m2
03:09 56.1 °F 52.2 °F 29.9 in Calm     86.4% 0 in 0 W/m2
03:14 56.3 °F 52.2 °F 29.9 in Calm     86% 0 in 0 W/m2
03:19 56.1 °F 52 °F 29.9 in Calm     85.8% 0 in 0 W/m2
03:24 56.3 °F 51.8 °F 29.9 in Calm     85% 0 in 0 W/m2
03:29 56.3 °F 51.8 °F 29.9 in Calm     85% 0 in 0 W/m2
03:34 55.9 °F 52 °F 29.9 in Calm     86.7% 0 in 0 W/m2
03:39 55.8 °F 52 °F 29.9 in Calm     86.8% 0 in 0 W/m2
03:44 55.8 °F 51.6 °F 29.9 in Calm     86% 0 in 0 W/m2
03:49 55.8 °F 51.6 °F 29.9 in Calm     85.9% 0 in 0 W/m2
03:54 55.9 °F 51.4 °F 29.9 in Calm     85.3% 0 in 0 W/m2
03:59 55.9 °F 51.4 °F 29.9 in Calm     85% 0 in 0 W/m2
04:04 55.9 °F 51.4 °F 29.9 in Calm     85.2% 0 in 0 W/m2
04:09 55.9 °F 52.2 °F 29.9 in Calm     86.9% 0 in 0 W/m2
04:14 55 °F 51.4 °F 29.9 in Calm     87% 0 in 0 W/m2
04:19 54.9 °F 51.1 °F 29.9 in Calm     87% 0 in 0 W/m2
04:24 54.9 °F 51.3 °F 29.9 in Calm     87.4% 0 in 0 W/m2
04:29 54.9 °F 51.4 °F 29.9 in Calm     88.2% 0 in 0 W/m2
04:34 54.5 °F 51.1 °F 29.9 in Calm     88.5% 0 in 0 W/m2
04:39 54.3 °F 51.1 °F 29.9 in Calm     88.6% 0 in 0 W/m2
04:44 54.3 °F 50.9 °F 29.9 in Calm     88% 0 in 0 W/m2
04:49 54.3 °F 51.1 °F 29.9 in Calm     88.8% 0 in 0 W/m2
04:54 54.7 °F 51.1 °F 29.9 in Calm     87.7% 0 in 0 W/m2
04:59 54.7 °F 50.4 °F 29.9 in Calm     85.7% 0 in 0 W/m2
05:04 54.9 °F 50.4 °F 29.9 in Calm     85% 0 in 0 W/m2
05:09 55 °F 50.5 °F 29.9 in Calm     84.5% 0 in 0 W/m2
05:14 55.8 °F 50.9 °F 29.9 in Calm     83.1% 0 in 0 W/m2
05:19 56.1 °F 50.9 °F 29.9 in Calm     82.7% 0 in 0 W/m2
05:24 56.1 °F 50.9 °F 29.9 in Calm     82.4% 0 in 0 W/m2
05:29 55.9 °F 50.9 °F 29.9 in Calm     82.9% 0 in 0 W/m2
05:34 55.2 °F 50.5 °F 29.9 in Calm     84.1% 0 in 0 W/m2
05:39 54.9 °F 50.2 °F 29.9 in Calm     84.1% 0 in 0 W/m2
05:44 54.9 °F 50.5 °F 29.9 in Calm     85.8% 0 in 0 W/m2
05:49 54.7 °F 51.1 °F 29.9 in Calm     87.7% 0 in 0 W/m2
05:54 54 °F 50.4 °F 29.9 in Calm     87.4% 0 in 0 W/m2
05:59 53.8 °F 49.8 °F 29.9 in Calm     86.3% 0 in 0 W/m2
06:04 54 °F 49.8 °F 29.9 in Calm     86% 0 in 0 W/m2
06:09 54.1 °F 49.8 °F 29.9 in Calm     85.4% 0 in 0 W/m2
06:14 54.7 °F 50.5 °F 29.9 in Calm     86% 0 in 0 W/m2
06:19 55 °F 51.4 °F 29.9 in Calm     87.2% 0 in 0 W/m2
06:24 54.9 °F 51.6 °F 29.9 in Calm     88.6% 0 in 0 W/m2
06:29 54.7 °F 51.1 °F 29.9 in Calm     87.2% 0 in 0 W/m2
06:34 54.5 °F 50.5 °F 29.9 in Calm     86.4% 0 in 0 W/m2
06:39 54.5 °F 50.4 °F 29.9 in Calm     86.1% 0 in 0 W/m2
06:44 54.5 °F 50.5 °F 29.9 in Calm     86.4% 0 in 0 W/m2
06:49 54.5 °F 50.7 °F 29.9 in Calm     86.8% 0 in 0 W/m2
06:54 54.7 °F 50.7 °F 29.9 in Calm     86.6% 0 in 0 W/m2
06:59 54.7 °F 50.5 °F 29.9 in Calm     86% 0 in 0 W/m2
07:04 54.7 °F 50.7 °F 29.9 in Calm     86.6% 0 in 5 W/m2
07:09 54.7 °F 51.3 °F 29.9 in Calm     87.8% 0 in 8 W/m2
07:14 54.7 °F 50.9 °F 29.9 in Calm     86.9% 0 in 13 W/m2
07:19 54.7 °F 50.4 °F 29.9 in Calm     85.8% 0 in 19 W/m2
07:24 54.7 °F 50.2 °F 29.9 in Calm     85% 0 in 24 W/m2
07:29 54.9 °F 50.2 °F 29.9 in Calm     84.1% 0 in 30 W/m2
07:34 55.8 °F 50.7 °F 29.9 in Calm     83.4% 0 in 36 W/m2
07:39 56.3 °F 51.3 °F 29.9 in Calm     82.8% 0 in 42 W/m2
07:44 56.7 °F 51.6 °F 29.9 in Calm     83.4% 0 in 47 W/m2
07:49 56.8 °F 51.8 °F 29.9 in Calm     83% 0 in 52 W/m2
07:54 57.6 °F 52.5 °F 29.9 in Calm     82.6% 0 in 57 W/m2
07:59 58.5 °F 52.7 °F 29.9 in Calm     80.9% 0 in 62 W/m2
08:04 58.6 °F 51.8 °F 29.9 in Calm     77.8% 0 in 66 W/m2
08:09 59.2 °F 51.6 °F 29.9 in Calm     76.1% 0 in 71 W/m2
08:14 60.8 °F 52.9 °F 29.9 in Calm     75.7% 0 in 75 W/m2
08:19 62.1 °F 54 °F 29.9 in Calm     74.8% 0 in 80 W/m2
08:24 62.1 °F 54.3 °F 29.9 in Calm     75.8% 0 in 82 W/m2
08:29 62.1 °F 54 °F 29.9 in Calm     74.9% 0 in 85 W/m2
08:34 63 °F 54.9 °F 29.9 in Calm     74.9% 0 in 87 W/m2
08:39 63.9 °F 55.4 °F 29.9 in Calm     73.9% 0 in 90 W/m2
08:44 63.9 °F 55.9 °F 29.9 in Calm     75.4% 0 in 92 W/m2
08:49 63.9 °F 55.6 °F 29.9 in Calm     74.6% 0 in 94 W/m2
08:54 64.4 °F 55.4 °F 29.9 in Calm     72.7% 0 in 97 W/m2
08:59 65.5 °F 56.3 °F 29.9 in Calm     71.9% 0 in 98 W/m2
09:04 65.7 °F 55.8 °F 29.9 in Calm     70.6% 0 in 100 W/m2
09:09 65.7 °F 56.8 °F 29.9 in Calm     73.3% 0 in 102 W/m2
09:14 65.3 °F 56.8 °F 29.9 in Calm     74.3% 0 in 103 W/m2
09:19 64.2 °F 56.3 °F 29.9 in Calm     75.3% 0 in 104 W/m2
09:24 64 °F 57.2 °F 29.9 in Calm     78.6% 0 in 105 W/m2
09:29 63.5 °F 57 °F 29.9 in Calm     79.6% 0 in 107 W/m2
09:34 62.8 °F 56.3 °F 29.9 in Calm     79.8% 0 in 109 W/m2
09:39 62.2 °F 54.9 °F 29.9 in Calm   2.5 mph 76.8% 0 in 113 W/m2
09:44 62.4 °F 55.9 °F 29.9 in Calm   2.5 mph 79.4% 0 in 116 W/m2
09:49 62.4 °F 55.9 °F 29.9 in Calm     79.2% 0 in 119 W/m2
09:54 62.8 °F 56.3 °F 29.9 in Calm   2.5 mph 79.4% 0 in 122 W/m2
09:59 63 °F 56.3 °F 29.9 in Calm     79% 0 in 126 W/m2
10:04 63.1 °F 56.5 °F 29.9 in SE 0.4 mph 4.9 mph 78.7% 0 in 131 W/m2
10:09 63.5 °F 56.3 °F 29.9 in Calm   2.5 mph 77.6% 0 in 134 W/m2
10:14 64 °F 57 °F 29.9 in Calm   2.5 mph 77.8% 0 in 138 W/m2
10:19 64.9 °F 57.6 °F 29.9 in Calm   2.5 mph 77% 0 in 145 W/m2
10:24 64.9 °F 57.9 °F 29.9 in SE 0.4 mph 4.9 mph 77.9% 0 in 150 W/m2
10:29 65.1 °F 58.5 °F 29.9 in Calm   4.9 mph 79% 0 in 155 W/m2
10:34 64.8 °F 58.6 °F 29.9 in ESE 1 mph 4.9 mph 80.3% 0 in 161 W/m2
10:39 64 °F 57.6 °F 29.9 in SE 0.2 mph 4.9 mph 79.8% 0 in 166 W/m2
10:44 64 °F 57.4 °F 29.9 in SSE 0.4 mph 2.5 mph 78.9% 0 in 173 W/m2
10:49 64.4 °F 57.7 °F 29.9 in SE 0.7 mph 4.9 mph 79.1% 0 in 179 W/m2
10:54 64.6 °F 57.9 °F 29.9 in ESE 0.4 mph 4.9 mph 79.2% 0 in 185 W/m2
10:59 64.9 °F 58.5 °F 29.9 in SE 1.6 mph 7.6 mph 79.7% 0 in 190 W/m2
11:04 64.8 °F 59.2 °F 29.9 in ENE 0.5 mph 7.6 mph 81.8% 0 in 196 W/m2
11:09 64.4 °F 58.8 °F 29.9 in SE 0.9 mph 7.6 mph 81.8% 0 in 203 W/m2
11:14 64.4 °F 57.9 °F 29.9 in ESE 0.1 mph 7.6 mph 79.3% 0 in 211 W/m2
11:19 65.1 °F 58.5 °F 29.9 in SSE 0.9 mph 4.9 mph 79.3% 0 in 221 W/m2
11:24 65.1 °F 58.5 °F 29.9 in SE 0.4 mph 4.9 mph 78.8% 0 in 227 W/m2
11:29 65.1 °F 58.1 °F 29.9 in SE 0.4 mph 4.9 mph 78% 0 in 235 W/m2
11:34 65.3 °F 58.3 °F 29.9 in SE 1.1 mph 4.9 mph 77.9% 0 in 244 W/m2
11:39 65.5 °F 57.9 °F 29.9 in Calm   4.9 mph 76.6% 0 in 251 W/m2
11:44 65.5 °F 57.9 °F 29.9 in SSE 1 mph 4.9 mph 76.3% 0 in 261 W/m2
11:49 65.7 °F 58.3 °F 29.9 in South 1.1 mph 7.6 mph 76.8% 0 in 269 W/m2
11:54 65.8 °F 58.1 °F 29.9 in SE 0.9 mph 4.9 mph 76.1% 0 in 279 W/m2
11:59 66.6 °F 58.5 °F 29.9 in SSE 0.7 mph 4.9 mph 75.2% 0 in 289 W/m2
12:04 66.6 °F 59 °F 29.9 in SSE 1.1 mph 4.9 mph 76.3% 0 in 296 W/m2
12:09 66.6 °F 59 °F 29.9 in ESE 1.6 mph 7.6 mph 76.6% 0 in 303 W/m2
12:14 66.4 °F 59.5 °F 29.9 in ESE 0.7 mph 7.6 mph 78.4% 0 in 311 W/m2
12:19 66 °F 59 °F 29.9 in SSE 0.7 mph 7.6 mph 77.9% 0 in 317 W/m2
12:24 65.8 °F 58.8 °F 29.9 in SSE 0.8 mph 7.6 mph 78.2% 0 in 326 W/m2
12:29 65.8 °F 58.8 °F 29.9 in East 0.7 mph 7.6 mph 77.8% 0 in 333 W/m2
12:34 65.7 °F 59.5 °F 29.9 in ENE 0.8 mph 7.6 mph 80.1% 0 in 338 W/m2
12:39 64.6 °F 58.5 °F 29.9 in SSE 1.7 mph 7.6 mph 80.4% 0 in 348 W/m2
12:44 64.8 °F 58.3 °F 29.9 in SE 0.7 mph 7.6 mph 79.6% 0 in 355 W/m2
12:49 64.9 °F 58.3 °F 29.9 in ESE 0.4 mph 4.9 mph 79.3% 0 in 359 W/m2
12:54 65.1 °F 57.9 °F 29.9 in SE 0.1 mph 2.5 mph 77.4% 0 in 362 W/m2
12:59 66.7 °F 59.5 °F 29.8 in South 0.1 mph 4.9 mph 77.8% 0 in 363 W/m2
13:04 66.7 °F 59.2 °F 29.8 in SSE 0.6 mph 4.9 mph 76.4% 0 in 368 W/m2
13:09 66.7 °F 59.2 °F 29.8 in SSE 0.2 mph 2.5 mph 76.4% 0 in 377 W/m2
13:14 66.7 °F 59.2 °F 29.8 in SE 0.9 mph 4.9 mph 76.7% 0 in 380 W/m2
13:19 66.7 °F 59.4 °F 29.8 in SE 0.1 mph 4.9 mph 76.8% 0 in 380 W/m2
13:24 66.7 °F 59.4 °F 29.8 in SSE 1.2 mph 7.6 mph 76.8% 0 in 381 W/m2
13:29 66.7 °F 58.8 °F 29.8 in SSE 0.7 mph 7.6 mph 75.3% 0 in 380 W/m2
13:34 66.7 °F 58.5 °F 29.8 in SSE 0.6 mph 7.6 mph 74.8% 0 in 373 W/m2
13:39 66.7 °F 58.1 °F 29.8 in SSE 0.2 mph 2.5 mph 74% 0 in 347 W/m2
13:44 66.7 °F 58.8 °F 29.8 in SE 0.7 mph 7.6 mph 75.6% 0 in 361 W/m2
13:49 66.7 °F 59 °F 29.8 in South 2.5 mph 7.6 mph 75.9% 0 in 353 W/m2
13:54 66.7 °F 58.6 °F 29.8 in South 2.9 mph 10.1 mph 75% 0 in 348 W/m2
13:59 66.7 °F 59 °F 29.8 in ESE 0.9 mph 7.6 mph 75.6% 0 in 361 W/m2
14:04 66.7 °F 59.2 °F 29.8 in SSE 1.9 mph 10.1 mph 76.2% 0 in 352 W/m2
14:09 66.9 °F 59.4 °F 29.8 in SSE 2.4 mph 10.1 mph 76.3% 0 in 361 W/m2
14:14 66.9 °F 59.9 °F 29.8 in SSE 3.1 mph 10.1 mph 78% 0 in 354 W/m2
14:19 67.5 °F 60.4 °F 29.8 in South 1.4 mph 10.1 mph 78% 0 in 348 W/m2
14:24 67.6 °F 60.8 °F 29.8 in SSE 4 mph 10.1 mph 78.6% 0 in 342 W/m2
14:29 67.5 °F 60.8 °F 29.8 in South 3 mph 10.1 mph 79% 0 in 337 W/m2
14:34 67.3 °F 60.8 °F 29.8 in SE 2.1 mph 10.1 mph 79.6% 0 in 326 W/m2
14:39 66.9 °F 60.4 °F 29.8 in SSE 2.5 mph 7.6 mph 79.6% 0 in 312 W/m2
14:44 66.6 °F 60.1 °F 29.8 in South 2.8 mph 7.6 mph 79.6% 0 in 301 W/m2
14:49 66.7 °F 59.7 °F 29.8 in South 0.9 mph 7.6 mph 77.8% 0 in 307 W/m2
14:54 66.7 °F 59.5 °F 29.8 in South 2.7 mph 10.1 mph 77.3% 0 in 283 W/m2
14:59 65.8 °F 59.2 °F 29.8 in SSE 4.4 mph 10.1 mph 79% 0 in 223 W/m2
15:04 65.5 °F 58.8 °F 29.8 in SSE 1.4 mph 7.6 mph 79% 0 in 238 W/m2
15:09 65.5 °F 58.6 °F 29.8 in SSE 2.7 mph 7.6 mph 78.6% 0 in 280 W/m2
15:14 65.7 °F 58.8 °F 29.8 in South 3.5 mph 7.6 mph 78.9% 0 in 281 W/m2
15:19 65.8 °F 59.4 °F 29.8 in SSW 2.5 mph 7.6 mph 79.2% 0 in 240 W/m2
15:24 66 °F 59.2 °F 29.8 in SSE 2.6 mph 7.6 mph 78.7% 0 in 227 W/m2
15:29 66 °F 59.4 °F 29.8 in South 1 mph 4.9 mph 79.1% 0 in 228 W/m2
15:34 65.8 °F 59.5 °F 29.8 in South 2.4 mph 7.6 mph 79.9% 0 in 245 W/m2
15:39 65.5 °F 59.5 °F 29.8 in SSE 1.8 mph 7.6 mph 80.6% 0 in 236 W/m2
15:44 65.3 °F 59.5 °F 29.8 in South 0.2 mph 7.6 mph 81.7% 0 in 231 W/m2
15:49 65.5 °F 59.4 °F 29.8 in South 1 mph 4.9 mph 80.4% 0 in 223 W/m2
15:54 65.3 °F 59.5 °F 29.8 in SSE 2.1 mph 7.6 mph 81.3% 0 in 90 W/m2
15:59 64.2 °F 58.8 °F 29.8 in South 0.1 mph 2.5 mph 82.6% 0 in 85 W/m2
16:04 63.7 °F 58.5 °F 29.8 in South 0.3 mph 4.9 mph 83% 0 in 74 W/m2
16:09 63.7 °F 58.5 °F 29.8 in South 0.4 mph 4.9 mph 83% 0 in 74 W/m2
16:14 63.5 °F 58.3 °F 29.8 in South 0.1 mph 2.5 mph 83% 0 in 77 W/m2
16:19 63.3 °F 57.7 °F 29.8 in Calm   2.5 mph 82% 0 in 78 W/m2
16:24 63.1 °F 57.6 °F 29.8 in Calm     82% 0 in 76 W/m2
16:29 63.1 °F 57.7 °F 29.8 in Calm     82.2% 0 in 66 W/m2
16:34 63.1 °F 57.9 °F 29.8 in Calm     83% 0 in 58 W/m2
16:39 62.8 °F 57.6 °F 29.8 in Calm   2.5 mph 83.1% 0 in 51 W/m2
16:44 62.6 °F 57.7 °F 29.8 in Calm   2.5 mph 84% 0 in 48 W/m2
16:49 62.6 °F 57.7 °F 29.8 in Calm     84% 0 in 42 W/m2
16:54 62.6 °F 57.9 °F 29.8 in Calm     84.7% 0 in 36 W/m2
16:59 62.2 °F 57.7 °F 29.8 in Calm     85.8% 0 in 33 W/m2
17:04 61.9 °F 58.1 °F 29.8 in Calm     87.4% 0 in 28 W/m2
17:09 61.9 °F 58.3 °F 29.8 in Calm     88% 0 in 21 W/m2
17:14 61.7 °F 58.3 °F 29.8 in Calm     88.2% 0 in 17 W/m2
17:19 61.5 °F 57.9 °F 29.8 in South 0.2 mph 2.5 mph 88% 0 in 11 W/m2
17:24 61.3 °F 57.6 °F 29.8 in South 0.1 mph 2.5 mph 87.8% 0 in 6 W/m2
17:29 61.3 °F 57.7 °F 29.8 in Calm     88% 0 in 3 W/m2
17:34 61.2 °F 57.6 °F 29.8 in Calm     88% 0 in 0 W/m2
17:39 61.2 °F 57.7 °F 29.8 in Calm     88.8% 0 in 0 W/m2
17:44 61 °F 57.7 °F 29.8 in Calm     89.2% 0 in 0 W/m2
17:49 61 °F 58.1 °F 29.8 in Calm     90% 0 in 0 W/m2
17:54 61 °F 58.1 °F 29.8 in Calm     90.3% 0 in 0 W/m2
17:59 60.6 °F 57.9 °F 29.8 in Calm     91% 0 in 0 W/m2
18:04 60.3 °F 57.7 °F 29.8 in Calm     91.3% 0 in 0 W/m2
18:09 60.1 °F 57.7 °F 29.8 in South 0.1 mph 2.5 mph 92% 0 in 0 W/m2
18:14 60.1 °F 57.7 °F 29.8 in SSW 0.1 mph 4.9 mph 92% 0 in 0 W/m2
18:19 60.1 °F 58.1 °F 29.8 in SSW 1.7 mph 7.6 mph 92.8% 0 in 0 W/m2
18:24 60.1 °F 58.1 °F 29.8 in SSW 0.6 mph 4.9 mph 93.6% 0 in 0 W/m2
18:29 59.9 °F 58.1 °F 29.8 in SSE 0.2 mph 4.9 mph 94.2% 0 in 0 W/m2
18:34 59.9 °F 58.5 °F 29.8 in Calm   2.5 mph 95% 0 in 0 W/m2
18:39 59.4 °F 58.3 °F 29.8 in Calm     96% 0 in 0 W/m2
18:44 59 °F 58.1 °F 29.8 in Calm     96.6% 0 in 0 W/m2
18:49 59 °F 58.1 °F 29.8 in Calm     97% 0 in 0 W/m2
18:54 58.8 °F 57.7 °F 29.8 in Calm     96.2% 0 in 0 W/m2
18:59 58.6 °F 57.6 °F 29.8 in Calm     96% 0 in 0 W/m2
19:04 58.3 °F 56.8 °F 29.8 in Calm     95% 0 in 0 W/m2
19:09 58.3 °F 56.8 °F 29.8 in Calm     95% 0 in 0 W/m2
19:14 58.3 °F 56.7 °F 29.8 in Calm     94.7% 0 in 0 W/m2
19:19 58.3 °F 57 °F 29.8 in Calm     95.6% 0 in 0 W/m2
19:24 58.3 °F 57.4 °F 29.8 in Calm     96.4% 0 in 0 W/m2
19:29 58.3 °F 57.2 °F 29.8 in SSW 0.7 mph 4.9 mph 96.1% 0 in 0 W/m2
19:34 58.3 °F 56.5 °F 29.8 in SSW 1.4 mph 7.6 mph 94.1% 0 in 0 W/m2
19:39 58.6 °F 56.8 °F 29.8 in SSW 0.6 mph 4.9 mph 93.9% 0 in 0 W/m2
19:44 59 °F 57.2 °F 29.8 in Calm   4.9 mph 93.4% 0 in 0 W/m2
19:49 59 °F 57 °F 29.8 in Calm     93.1% 0 in 0 W/m2
19:54 59 °F 57.4 °F 29.8 in SSE 0.2 mph 2.5 mph 94.6% 0 in 0 W/m2
19:59 58.5 °F 57.6 °F 29.8 in South 0.1 mph 2.5 mph 97% 0 in 0 W/m2
20:04 57.6 °F 56.5 °F 29.8 in Calm   2.5 mph 96.1% 0 in 0 W/m2
20:09 57.6 °F 56.7 °F 29.8 in SSW 1.7 mph 7.6 mph 97% 0 in 0 W/m2
20:14 57.6 °F 56.7 °F 29.8 in SSW 2.1 mph 7.6 mph 96.9% 0 in 0 W/m2
20:19 57.7 °F 56.5 °F 29.8 in SSW 1.4 mph 7.6 mph 95.8% 0 in 0 W/m2
20:24 58.1 °F 55.9 °F 29.8 in SW 0.7 mph 4.9 mph 93% 0 in 0 W/m2
20:29 57.9 °F 55.6 °F 29.8 in SW 0.2 mph 2.5 mph 92.2% 0 in 0 W/m2
20:34 57.9 °F 55.9 °F 29.8 in Calm   2.5 mph 93.6% 0 in 0 W/m2
20:39 57.6 °F 55.6 °F 29.8 in SSW 0.1 mph 2.5 mph 93.2% 0 in 0 W/m2
20:44 57.2 °F 54.9 °F 29.8 in Calm   2.5 mph 92% 0 in 0 W/m2
20:49 57.2 °F 54.9 °F 29.8 in Calm   2.5 mph 91.4% 0 in 0 W/m2
20:54 57.2 °F 54.9 °F 29.8 in SW 0.3 mph 2.5 mph 91.5% 0 in 0 W/m2
20:59 57.2 °F 54 °F 29.9 in South 0.7 mph 4.9 mph 89.4% 0 in 0 W/m2
21:04 57.4 °F 53.6 °F 29.8 in SW 0.6 mph 4.9 mph 87.2% 0 in 0 W/m2
21:09 57.4 °F 53.8 °F 29.9 in Calm   2.5 mph 87.7% 0 in 0 W/m2
21:14 57.2 °F 53.6 °F 29.9 in Calm     88.2% 0 in 0 W/m2
21:19 57 °F 53.6 °F 29.9 in Calm     88.8% 0 in 0 W/m2
21:24 56.5 °F 52.5 °F 29.9 in SSW 1.2 mph 4.9 mph 86.6% 0 in 0 W/m2
21:29 56.7 °F 52.2 °F 29.9 in SSW 1.2 mph 4.9 mph 85.2% 0 in 0 W/m2
21:34 56.7 °F 52.3 °F 29.9 in SSW 3.1 mph 7.6 mph 85.3% 0 in 0 W/m2
21:39 56.8 °F 52.3 °F 29.9 in South 1.7 mph 7.6 mph 84.9% 0 in 0 W/m2
21:44 57.6 °F 53.1 °F 29.9 in South 2.6 mph 7.6 mph 84.8% 0 in 0 W/m2
21:49 57.6 °F 52.9 °F 29.9 in South 1 mph 7.6 mph 84.4% 0 in 0 W/m2
21:54 57.6 °F 53.1 °F 29.9 in SSE 0.4 mph 4.9 mph 85% 0 in 0 W/m2
21:59 57.6 °F 53.4 °F 29.9 in South 0.2 mph 4.9 mph 86.2% 0 in 0 W/m2
22:04 56.8 °F 53.1 °F 29.9 in SSW 0.8 mph 4.9 mph 87% 0 in 0 W/m2
22:09 56.8 °F 53.2 °F 29.9 in South 1.3 mph 10.1 mph 87.6% 0 in 0 W/m2
22:14 56.8 °F 54 °F 29.9 in South 3.7 mph 7.6 mph 89.6% 0 in 0 W/m2
22:19 57 °F 54.3 °F 29.9 in South 2.7 mph 7.6 mph 90.4% 0 in 0 W/m2
22:24 57.6 °F 55.9 °F 29.9 in South 1.7 mph 7.6 mph 94.3% 0 in 0 W/m2
22:29 57.6 °F 56.5 °F 29.9 in South 1.7 mph 4.9 mph 96.3% 0 in 0 W/m2
22:34 57.6 °F 57.2 °F 29.9 in South 2 mph 7.6 mph 98.9% 0 in 0 W/m2
22:39 57.6 °F 57.2 °F 29.9 in SSW 0.6 mph 4.9 mph 99% 0 in 0 W/m2
22:44 57.6 °F 57.2 °F 29.9 in SSW 1.1 mph 4.9 mph 99% 0 in 0 W/m2
22:49 57.4 °F 57 °F 29.9 in Calm   4.9 mph 99% 0 in 0 W/m2
22:54 57.4 °F 57 °F 29.9 in South 0.4 mph 4.9 mph 99% 0 in 0 W/m2
22:59 57.4 °F 57 °F 29.9 in SSE 0.6 mph 4.9 mph 99% 0 in 0 W/m2
23:04 57.2 °F 56.8 °F 29.9 in South 0.2 mph 4.9 mph 99% 0 in 0 W/m2
23:09 57.2 °F 56.8 °F 29.9 in South 0.4 mph 4.9 mph 99% 0 in 0 W/m2
23:14 57.2 °F 56.8 °F 29.9 in South 0.4 mph 7.6 mph 99% 0 in 0 W/m2
23:19 57.2 °F 56.8 °F 29.9 in SSE 0.1 mph 7.6 mph 99% 0 in 0 W/m2
23:24 57.2 °F 56.8 °F 29.9 in South 0.4 mph 4.9 mph 99% 0 in 0 W/m2
23:29 57 °F 56.7 °F 29.9 in Calm     99% 0 in 0 W/m2
23:34 57 °F 56.7 °F 29.9 in Calm     99% 0 in 0 W/m2
23:39 57 °F 56.7 °F 29.9 in South 0.2 mph 2.5 mph 99% 0 in 0 W/m2
23:44 56.8 °F 56.7 °F 29.9 in Calm     99% 0 in 0 W/m2
23:49 56.8 °F 56.5 °F 29.9 in Calm   2.5 mph 99% 0 in 0 W/m2
23:54 57 °F 56.7 °F 29.9 in SSW 0.4 mph 4.9 mph 99% 0 in 0 W/m2
23:59 57 °F 56.7 °F 29.9 in Calm   2.5 mph 99% 0 in 0 W/m2
Juneau County Weather
Compliments of Weather Underground - 2 mb